Guthrie, North Carolina
Current Conditions -  °F | °C
As of 12:54 PM on Monday 24 Nov 2014 (Local Time) from KGSO Reporting Station
Scattered Clouds Scattered Clouds  
Wind Chill: 21°   Ceiling: Unl
Heat Index: 21°   Visibility: 10mi
Dew Point: 13°   Wind: 23mph
Humidity: 59%   Direction: 220°SW
Pressure: 29.74"   Gusts: 30mph
Location:  36.1188°N, 80.075°W
Report Text: KGSO 241754Z 22020G26KT 10SM FEW029 SCT110 21/13 A2974 RMK AO2 PK WND 21028/1659 SLP063 T02110128 10211 20144 58015
Loading
Personal Weather Stations






























Interactive Weather Map New forecast layout! Learn more

10-Day Weather Forecast

Advertisements
Track Severe Weather on mobile